createdAt,value
2018-12-08T00:00:52.937Z,9.66
2018-12-08T00:01:52.925Z,9.58
2018-12-08T00:02:52.914Z,9.60
2018-12-08T00:03:52.915Z,9.61
2018-12-08T00:04:52.918Z,9.61
2018-12-08T00:05:52.883Z,9.53
2018-12-08T00:06:52.872Z,9.60
2018-12-08T00:07:52.863Z,9.47
2018-12-08T00:08:52.877Z,9.48
2018-12-08T00:09:52.841Z,9.51
2018-12-08T00:10:52.827Z,9.54
2018-12-08T00:11:52.814Z,9.47
2018-12-08T00:12:52.805Z,9.40
2018-12-08T00:13:52.818Z,9.33
2018-12-08T00:14:52.785Z,9.32
2018-12-08T00:15:52.794Z,9.23
2018-12-08T00:16:52.761Z,9.24
2018-12-08T00:17:52.853Z,9.21
2018-12-08T00:18:52.764Z,9.18
2018-12-08T00:19:52.729Z,9.14
2018-12-08T00:20:52.719Z,9.04
2018-12-08T00:21:52.707Z,9.13
2018-12-08T00:22:52.697Z,8.98
2018-12-08T00:23:52.714Z,9.05
2018-12-08T00:24:52.675Z,9.05
2018-12-08T00:25:52.666Z,9.04
2018-12-08T00:26:52.654Z,9.01
2018-12-08T00:27:52.643Z,9.04
2018-12-08T00:28:52.657Z,9.01
2018-12-08T00:29:52.621Z,8.98
2018-12-08T00:30:52.616Z,8.84
2018-12-08T00:31:52.601Z,8.96
2018-12-08T00:32:52.587Z,9.04
2018-12-08T00:33:52.602Z,8.92
2018-12-08T00:34:52.573Z,8.77
2018-12-08T00:35:52.556Z,8.79
2018-12-08T00:36:52.543Z,8.74
2018-12-08T00:37:52.532Z,8.71
2018-12-08T00:38:52.548Z,8.62
2018-12-08T00:39:52.512Z,8.68
2018-12-08T00:40:52.497Z,8.61
2018-12-08T00:41:52.487Z,8.43
2018-12-08T00:42:52.477Z,8.47
2018-12-08T00:43:52.491Z,8.33
2018-12-08T00:44:52.454Z,8.30
2018-12-08T00:45:52.444Z,8.26
2018-12-08T00:46:52.434Z,8.20
2018-12-08T00:47:52.423Z,8.22
2018-12-08T00:48:52.435Z,8.19
2018-12-08T00:49:52.401Z,8.05
2018-12-08T00:50:52.393Z,8.02
2018-12-08T00:51:52.378Z,8.04
2018-12-08T00:52:52.367Z,8.02
2018-12-08T00:53:52.382Z,8.05
2018-12-08T00:54:52.348Z,8.04
2018-12-08T00:55:52.338Z,7.92
2018-12-08T00:56:52.327Z,7.93
2018-12-08T00:57:52.316Z,7.98
2018-12-08T00:58:52.328Z,7.85
2018-12-08T00:59:52.293Z,7.89
2018-12-08T01:00:52.283Z,7.85
2018-12-08T01:01:52.271Z,7.87
2018-12-08T01:02:52.259Z,7.80
2018-12-08T01:03:52.298Z,7.80
2018-12-08T01:04:52.266Z,7.83
2018-12-08T01:05:52.232Z,7.75
2018-12-08T01:06:52.230Z,7.74
2018-12-08T01:07:52.221Z,7.72
2018-12-08T01:08:52.221Z,7.72
2018-12-08T01:09:52.185Z,7.67
2018-12-08T01:10:52.178Z,7.71
2018-12-08T01:11:52.162Z,7.61
2018-12-08T01:12:52.153Z,7.71
2018-12-08T01:13:52.166Z,7.64
2018-12-08T01:14:52.128Z,7.60
2018-12-08T01:15:52.118Z,7.58
2018-12-08T01:16:52.107Z,7.64
2018-12-08T01:17:52.118Z,7.61
2018-12-08T01:18:52.110Z,7.67
2018-12-08T01:19:52.075Z,7.57
2018-12-08T01:20:52.064Z,7.64
2018-12-08T01:21:52.056Z,7.63
2018-12-08T01:22:52.041Z,7.61
2018-12-08T01:23:52.059Z,7.63
2018-12-08T01:24:52.018Z,7.63
2018-12-08T01:25:52.009Z,7.60
2018-12-08T01:26:51.998Z,7.63
2018-12-08T01:27:51.986Z,7.53
2018-12-08T01:28:52.007Z,7.60
2018-12-08T01:29:51.964Z,7.61
2018-12-08T01:30:51.956Z,7.58
2018-12-08T01:31:51.945Z,7.52
2018-12-08T01:32:51.929Z,7.49
2018-12-08T01:33:51.945Z,7.60
2018-12-08T01:34:51.909Z,7.50
2018-12-08T01:35:51.899Z,7.58
2018-12-08T01:36:51.891Z,7.57
2018-12-08T01:37:51.878Z,7.60
2018-12-08T01:38:51.892Z,7.57
2018-12-08T01:39:51.857Z,7.50
2018-12-08T01:40:51.844Z,7.63
2018-12-08T01:41:51.834Z,7.61
2018-12-08T01:42:51.823Z,7.57
2018-12-08T01:43:51.841Z,7.61
2018-12-08T01:44:51.802Z,7.60
2018-12-08T01:45:51.792Z,7.61
2018-12-08T01:46:51.779Z,7.63
2018-12-08T01:47:51.771Z,7.60
2018-12-08T01:48:51.783Z,7.61
2018-12-08T01:49:51.752Z,7.60
2018-12-08T01:50:51.737Z,7.60
2018-12-08T01:51:51.729Z,7.63
2018-12-08T01:52:51.722Z,7.61
2018-12-08T01:53:51.728Z,7.61
2018-12-08T01:54:51.693Z,7.63
2018-12-08T01:55:51.694Z,7.63
2018-12-08T01:56:51.764Z,7.61
2018-12-08T01:57:51.660Z,7.60
2018-12-08T01:58:51.671Z,7.48
2018-12-08T01:59:51.636Z,7.49
2018-12-08T02:00:51.624Z,7.57
2018-12-08T02:01:51.612Z,7.45
2018-12-08T02:02:51.604Z,7.48
2018-12-08T02:03:52.877Z,7.57
2018-12-08T02:04:51.584Z,7.57
2018-12-08T02:05:51.571Z,7.60
2018-12-08T02:06:51.561Z,7.49
2018-12-08T02:07:51.547Z,7.46
2018-12-08T02:08:51.562Z,7.52
2018-12-08T02:09:51.525Z,7.58
2018-12-08T02:10:51.516Z,7.67
2018-12-08T02:11:51.504Z,7.61
2018-12-08T02:12:51.492Z,7.60
2018-12-08T02:13:51.540Z,7.57
2018-12-08T02:14:51.505Z,7.69
2018-12-08T02:15:51.458Z,7.60
2018-12-08T02:16:51.448Z,7.60
2018-12-08T02:17:51.447Z,7.71
2018-12-08T02:18:51.454Z,7.72
2018-12-08T02:19:51.415Z,7.64
2018-12-08T02:20:51.402Z,7.64
2018-12-08T02:21:51.394Z,7.61
2018-12-08T02:22:51.382Z,7.68
2018-12-08T02:23:51.396Z,7.68
2018-12-08T02:24:51.361Z,7.63
2018-12-08T02:25:51.349Z,7.60
2018-12-08T02:26:51.338Z,7.60
2018-12-08T02:27:51.394Z,7.60
2018-12-08T02:28:51.341Z,7.48
2018-12-08T02:29:51.306Z,7.48
2018-12-08T02:30:51.294Z,7.46
2018-12-08T02:31:51.281Z,7.45
2018-12-08T02:32:51.272Z,7.52
2018-12-08T02:33:51.287Z,7.50
2018-12-08T02:34:51.248Z,7.55
2018-12-08T02:35:51.239Z,7.58
2018-12-08T02:36:51.225Z,7.46
2018-12-08T02:37:51.314Z,7.50
2018-12-08T02:38:51.231Z,7.49
2018-12-08T02:39:51.194Z,7.43
2018-12-08T02:40:51.180Z,7.43
2018-12-08T02:41:51.173Z,7.40
2018-12-08T02:42:51.161Z,7.48
2018-12-08T02:43:51.173Z,7.43
2018-12-08T02:44:51.136Z,7.52
2018-12-08T02:45:51.126Z,7.58
2018-12-08T02:46:51.116Z,7.43
2018-12-08T02:47:51.103Z,7.53
2018-12-08T02:48:51.120Z,7.53
2018-12-08T02:49:51.082Z,7.49
2018-12-08T02:50:51.079Z,7.52
2018-12-08T02:51:51.059Z,7.48
2018-12-08T02:52:51.046Z,7.48
2018-12-08T02:53:51.063Z,7.49
2018-12-08T02:54:51.026Z,7.48
2018-12-08T02:55:51.014Z,7.57
2018-12-08T02:56:51.003Z,7.49
2018-12-08T02:57:50.998Z,7.48
2018-12-08T02:58:51.005Z,7.48
2018-12-08T02:59:50.969Z,7.55
2018-12-08T03:00:50.962Z,7.52
2018-12-08T03:01:50.950Z,7.58
2018-12-08T03:02:50.935Z,7.45
2018-12-08T03:03:50.948Z,7.53
2018-12-08T03:04:50.933Z,7.57
2018-12-08T03:05:50.904Z,7.61
2018-12-08T03:06:50.893Z,7.46
2018-12-08T03:07:50.882Z,7.52
2018-12-08T03:08:50.892Z,7.60
2018-12-08T03:09:50.860Z,7.57
2018-12-08T03:10:50.848Z,7.55
2018-12-08T03:11:50.848Z,7.58
2018-12-08T03:12:50.825Z,7.49
2018-12-08T03:13:50.846Z,7.46
2018-12-08T03:14:50.806Z,7.48
2018-12-08T03:15:50.792Z,7.60
2018-12-08T03:16:50.783Z,7.52
2018-12-08T03:17:50.802Z,7.61
2018-12-08T03:18:50.761Z,7.48
2018-12-08T03:19:50.749Z,7.60
2018-12-08T03:20:50.740Z,7.52
2018-12-08T03:21:50.729Z,7.46
2018-12-08T03:22:50.750Z,7.49
2018-12-08T03:23:50.704Z,7.57
2018-12-08T03:24:50.697Z,7.49
2018-12-08T03:25:50.682Z,7.50
2018-12-08T03:26:50.670Z,7.48
2018-12-08T03:27:50.686Z,7.43
2018-12-08T03:28:50.651Z,7.50
2018-12-08T03:29:50.641Z,7.48
2018-12-08T03:30:50.633Z,7.42
2018-12-08T03:31:50.643Z,7.46
2018-12-08T03:32:50.658Z,7.42
2018-12-08T03:33:50.597Z,7.46
2018-12-08T03:34:50.584Z,7.39
2018-12-08T03:35:50.579Z,7.31
2018-12-08T03:36:50.567Z,7.40
2018-12-08T03:37:50.576Z,7.34
2018-12-08T03:38:50.540Z,7.32
2018-12-08T03:39:50.532Z,7.28
2018-12-08T03:40:50.518Z,7.27
2018-12-08T03:41:50.510Z,7.32
2018-12-08T03:42:50.524Z,7.27
2018-12-08T03:43:50.489Z,7.24
2018-12-08T03:44:50.479Z,7.24
2018-12-08T03:45:50.465Z,7.23
2018-12-08T03:46:50.456Z,7.17
2018-12-08T03:47:50.468Z,7.23
2018-12-08T03:48:50.434Z,7.21
2018-12-08T03:49:50.422Z,7.24
2018-12-08T03:50:50.408Z,7.21
2018-12-08T03:51:50.405Z,7.20
2018-12-08T03:52:50.413Z,7.09
2018-12-08T03:53:50.376Z,7.10
2018-12-08T03:54:50.366Z,7.07
2018-12-08T03:55:50.363Z,7.10
2018-12-08T03:56:50.345Z,7.06
2018-12-08T03:57:50.355Z,7.06
2018-12-08T03:58:50.322Z,7.12
2018-12-08T03:59:50.312Z,7.07
2018-12-08T04:00:50.299Z,7.05
2018-12-08T04:01:50.287Z,7.03
2018-12-08T04:02:50.301Z,6.99
2018-12-08T04:03:50.266Z,6.92
2018-12-08T04:04:50.254Z,7.02
2018-12-08T04:05:50.242Z,6.95
2018-12-08T04:06:50.236Z,7.03
2018-12-08T04:07:50.247Z,6.98
2018-12-08T04:08:50.208Z,7.05
2018-12-08T04:09:50.198Z,6.97
2018-12-08T04:10:50.194Z,6.89
2018-12-08T04:11:50.175Z,6.98
2018-12-08T04:12:50.194Z,7.05
2018-12-08T04:13:50.154Z,6.95
2018-12-08T04:14:50.146Z,6.97
2018-12-08T04:15:50.132Z,7.02
2018-12-08T04:16:50.121Z,6.95
2018-12-08T04:17:50.138Z,7.02
2018-12-08T04:18:50.102Z,6.97
2018-12-08T04:19:50.086Z,6.95
2018-12-08T04:20:50.078Z,6.91
2018-12-08T04:21:50.066Z,6.85
2018-12-08T04:22:50.080Z,6.92
2018-12-08T04:23:50.042Z,6.97
2018-12-08T04:24:50.031Z,6.92
2018-12-08T04:25:50.020Z,6.89
2018-12-08T04:26:50.010Z,6.92
2018-12-08T04:27:50.023Z,6.92
2018-12-08T04:28:49.987Z,6.89
2018-12-08T04:29:49.980Z,6.92
2018-12-08T04:30:50.105Z,6.97
2018-12-08T04:31:49.954Z,6.94
2018-12-08T04:32:49.967Z,6.97
2018-12-08T04:33:49.932Z,6.92
2018-12-08T04:34:49.920Z,6.92
2018-12-08T04:35:49.914Z,6.89
2018-12-08T04:36:49.898Z,6.92
2018-12-08T04:37:49.915Z,6.97
2018-12-08T04:38:49.877Z,6.97
2018-12-08T04:39:49.865Z,7.02
2018-12-08T04:40:49.853Z,6.92
2018-12-08T04:41:49.844Z,6.99
2018-12-08T04:42:49.858Z,6.81
2018-12-08T04:43:49.820Z,6.95
2018-12-08T04:44:49.809Z,6.95
2018-12-08T04:45:49.798Z,6.91
2018-12-08T04:46:49.787Z,6.99
2018-12-08T04:47:49.805Z,6.95
2018-12-08T04:48:49.765Z,6.88
2018-12-08T04:49:49.753Z,6.87
2018-12-08T04:50:49.744Z,6.80
2018-12-08T04:51:49.730Z,6.84
2018-12-08T04:52:49.748Z,6.80
2018-12-08T04:53:49.707Z,6.80
2018-12-08T04:54:49.699Z,6.79
2018-12-08T04:55:49.686Z,6.76
2018-12-08T04:56:49.680Z,6.77
2018-12-08T04:57:49.693Z,6.67
2018-12-08T04:58:49.654Z,6.62
2018-12-08T04:59:49.641Z,6.81
2018-12-08T05:00:49.636Z,6.76
2018-12-08T05:01:49.620Z,6.70
2018-12-08T05:02:49.655Z,6.66
2018-12-08T05:03:49.599Z,6.62
2018-12-08T05:04:49.586Z,6.67
2018-12-08T05:05:49.575Z,6.58
2018-12-08T05:06:49.564Z,6.70
2018-12-08T05:07:49.577Z,6.62
2018-12-08T05:08:49.543Z,6.64
2018-12-08T05:09:49.532Z,6.64
2018-12-08T05:10:49.522Z,6.59
2018-12-08T05:11:49.511Z,6.67
2018-12-08T05:12:49.525Z,6.59
2018-12-08T05:13:49.487Z,6.55
2018-12-08T05:14:49.477Z,6.58
2018-12-08T05:15:49.466Z,6.51
2018-12-08T05:16:49.454Z,6.56
2018-12-08T05:17:49.469Z,6.64
2018-12-08T05:18:49.434Z,6.51
2018-12-08T05:19:49.423Z,6.52
2018-12-08T05:20:49.412Z,6.52
2018-12-08T05:21:49.401Z,6.56
2018-12-08T05:22:49.414Z,6.56
2018-12-08T05:23:49.380Z,6.61
2018-12-08T05:24:49.371Z,6.55
2018-12-08T05:25:49.358Z,6.58
2018-12-08T05:26:49.348Z,6.55
2018-12-08T05:27:49.362Z,6.55
2018-12-08T05:28:49.326Z,6.49
2018-12-08T05:29:49.315Z,6.64
2018-12-08T05:30:49.308Z,6.58
2018-12-08T05:31:49.295Z,6.61
2018-12-08T05:32:49.311Z,6.64
2018-12-08T05:33:49.278Z,6.58
2018-12-08T05:34:49.261Z,6.58
2018-12-08T05:35:49.251Z,6.54
2018-12-08T05:36:49.254Z,6.56
2018-12-08T05:37:49.259Z,6.48
2018-12-08T05:38:49.219Z,6.48
2018-12-08T05:39:49.207Z,6.61
2018-12-08T05:40:49.204Z,6.52
2018-12-08T05:41:49.211Z,6.43
2018-12-08T05:42:49.177Z,6.49
2018-12-08T05:43:49.276Z,6.51
2018-12-08T05:44:49.155Z,6.49
2018-12-08T05:45:49.144Z,6.44
2018-12-08T05:46:49.369Z,6.44
2018-12-08T05:47:49.124Z,6.51
2018-12-08T05:48:49.114Z,6.51
2018-12-08T05:49:49.101Z,6.46
2018-12-08T05:50:49.091Z,6.48
2018-12-08T05:51:49.117Z,6.48
2018-12-08T05:52:49.074Z,6.48
2018-12-08T05:53:49.063Z,6.40
2018-12-08T05:54:49.047Z,6.43
2018-12-08T05:55:49.039Z,6.43
2018-12-08T05:56:49.027Z,6.37
2018-12-08T05:57:49.041Z,6.40
2018-12-08T05:58:49.006Z,6.25
2018-12-08T05:59:49.000Z,6.36
2018-12-08T06:00:48.985Z,6.36
2018-12-08T06:01:48.973Z,6.36
2018-12-08T06:02:48.989Z,6.28
2018-12-08T06:03:48.952Z,6.22
2018-12-08T06:04:48.942Z,6.38
2018-12-08T06:05:48.932Z,6.31
2018-12-08T06:06:48.918Z,6.28
2018-12-08T06:07:48.934Z,6.30
2018-12-08T06:08:48.900Z,6.34
2018-12-08T06:09:48.889Z,6.30
2018-12-08T06:10:48.882Z,6.28
2018-12-08T06:11:48.871Z,6.30
2018-12-08T06:12:48.880Z,6.25
2018-12-08T06:13:48.844Z,6.22
2018-12-08T06:14:48.833Z,6.27
2018-12-08T06:15:48.824Z,6.28
2018-12-08T06:16:48.812Z,6.19
2018-12-08T06:17:48.833Z,6.28
2018-12-08T06:18:48.793Z,6.30
2018-12-08T06:19:48.779Z,6.36
2018-12-08T06:20:48.773Z,6.27
2018-12-08T06:21:48.757Z,6.21
2018-12-08T06:22:48.772Z,6.36
2018-12-08T06:23:48.739Z,6.30
2018-12-08T06:24:48.730Z,6.22
2018-12-08T06:25:48.717Z,6.21
2018-12-08T06:26:48.705Z,6.19
2018-12-08T06:27:48.722Z,6.17
2018-12-08T06:28:48.683Z,6.18
2018-12-08T06:29:48.672Z,6.21
2018-12-08T06:30:48.661Z,6.19
2018-12-08T06:31:48.651Z,6.15
2018-12-08T06:32:48.666Z,6.15
2018-12-08T06:33:48.628Z,6.12
2018-12-08T06:34:48.619Z,6.06
2018-12-08T06:35:48.608Z,6.12
2018-12-08T06:36:48.624Z,6.14
2018-12-08T06:37:48.622Z,6.11
2018-12-08T06:38:48.573Z,5.99
2018-12-08T06:39:48.564Z,6.11
2018-12-08T06:40:48.552Z,6.03
2018-12-08T06:41:48.557Z,6.04
2018-12-08T06:42:48.530Z,6.00
2018-12-08T06:43:48.544Z,5.89
2018-12-08T06:44:48.510Z,5.91
2018-12-08T06:45:48.499Z,5.86
2018-12-08T06:46:48.489Z,5.90
2018-12-08T06:47:48.480Z,5.78
2018-12-08T06:48:48.490Z,5.86
2018-12-08T06:49:48.456Z,5.82
2018-12-08T06:50:48.443Z,5.89
2018-12-08T06:51:48.434Z,5.83
2018-12-08T06:52:48.423Z,5.85
2018-12-08T06:53:48.456Z,5.72
2018-12-08T06:54:48.402Z,5.72
2018-12-08T06:55:48.391Z,5.76
2018-12-08T06:56:48.383Z,5.78
2018-12-08T06:57:48.368Z,5.76
2018-12-08T06:58:48.359Z,5.71
2018-12-08T06:59:48.380Z,5.71
2018-12-08T07:00:48.335Z,5.68
2018-12-08T07:01:48.324Z,5.64
2018-12-08T07:02:48.312Z,5.65
2018-12-08T07:03:48.301Z,5.64
2018-12-08T07:04:48.292Z,5.71
2018-12-08T07:05:48.305Z,5.64
2018-12-08T07:06:48.271Z,5.67
2018-12-08T07:07:48.258Z,5.61
2018-12-08T07:08:48.254Z,5.68
2018-12-08T07:09:48.236Z,5.64
2018-12-08T07:10:48.251Z,5.57
2018-12-08T07:11:48.216Z,5.63
2018-12-08T07:12:48.203Z,5.57
2018-12-08T07:13:48.243Z,5.56
2018-12-08T07:14:48.181Z,5.56
2018-12-08T07:15:48.197Z,5.61
2018-12-08T07:16:48.158Z,5.53
2018-12-08T07:17:48.158Z,5.57
2018-12-08T07:18:48.136Z,5.64
2018-12-08T07:19:48.125Z,5.64
2018-12-08T07:20:48.135Z,5.65
2018-12-08T07:21:48.103Z,5.63
2018-12-08T07:22:48.092Z,5.65
2018-12-08T07:23:48.091Z,5.65
2018-12-08T07:24:48.071Z,5.63
2018-12-08T07:25:48.093Z,5.60
2018-12-08T07:26:48.048Z,5.61
2018-12-08T07:27:48.036Z,5.67
2018-12-08T07:28:48.028Z,5.65
2018-12-08T07:29:48.013Z,5.60
2018-12-08T07:30:48.001Z,5.58
2018-12-08T07:31:48.027Z,5.65
2018-12-08T07:32:47.983Z,5.64
2018-12-08T07:33:47.969Z,5.65
2018-12-08T07:34:47.959Z,5.64
2018-12-08T07:35:47.946Z,5.71
2018-12-08T07:36:47.935Z,5.64
2018-12-08T07:37:47.948Z,5.60
2018-12-08T07:38:47.912Z,5.61
2018-12-08T07:39:47.902Z,5.67
2018-12-08T07:40:47.891Z,5.61
2018-12-08T07:41:47.880Z,5.53
2018-12-08T07:42:47.892Z,5.51
2018-12-08T07:43:47.860Z,5.53
2018-12-08T07:44:47.865Z,5.63
2018-12-08T07:45:47.835Z,5.56
2018-12-08T07:46:47.823Z,5.58
2018-12-08T07:47:47.850Z,5.61
2018-12-08T07:48:47.810Z,5.56
2018-12-08T07:49:47.791Z,5.53
2018-12-08T07:50:47.780Z,5.51
2018-12-08T07:51:47.767Z,5.56
2018-12-08T07:52:47.848Z,5.57
2018-12-08T07:53:47.781Z,5.53
2018-12-08T07:54:47.735Z,5.56
2018-12-08T07:55:47.722Z,5.64
2018-12-08T07:56:47.713Z,5.67
2018-12-08T07:57:47.703Z,5.67
2018-12-08T07:58:47.689Z,5.63
2018-12-08T07:59:47.702Z,5.74
2018-12-08T08:00:47.667Z,5.75
2018-12-08T08:01:47.658Z,5.76
2018-12-08T08:02:47.645Z,5.72
2018-12-08T08:03:47.636Z,5.75
2018-12-08T08:04:47.666Z,5.76
2018-12-08T08:05:47.623Z,5.72
2018-12-08T08:06:47.603Z,5.72
2018-12-08T08:07:47.591Z,5.85
2018-12-08T08:08:47.582Z,5.85
2018-12-08T08:09:47.570Z,5.86
2018-12-08T08:10:47.583Z,5.96
2018-12-08T08:11:47.547Z,5.94
2018-12-08T08:12:47.535Z,5.90
2018-12-08T08:13:47.526Z,5.91
2018-12-08T08:14:47.514Z,5.90
2018-12-08T08:15:47.529Z,5.94
2018-12-08T08:16:47.494Z,5.94
2018-12-08T08:17:47.482Z,6.03
2018-12-08T08:18:47.472Z,5.91
2018-12-08T08:19:47.460Z,6.06
2018-12-08T08:20:47.473Z,6.03
2018-12-08T08:21:47.442Z,5.90
2018-12-08T08:22:47.426Z,6.00
2018-12-08T08:23:47.416Z,5.91
2018-12-08T08:24:47.404Z,5.94
2018-12-08T08:25:47.423Z,5.94
2018-12-08T08:26:47.387Z,5.99
2018-12-08T08:27:47.377Z,5.93
2018-12-08T08:28:47.361Z,5.89
2018-12-08T08:29:47.351Z,6.03
2018-12-08T08:30:47.364Z,5.97
2018-12-08T08:31:47.329Z,6.04
2018-12-08T08:32:47.321Z,6.01
2018-12-08T08:33:47.307Z,5.97
2018-12-08T08:34:47.298Z,6.09
2018-12-08T08:35:47.315Z,6.01
2018-12-08T08:36:47.277Z,5.99
2018-12-08T08:37:47.263Z,6.03
2018-12-08T08:38:47.252Z,6.06
2018-12-08T08:39:47.255Z,6.06
2018-12-08T08:40:47.256Z,6.01
2018-12-08T08:41:47.220Z,6.00
2018-12-08T08:42:47.210Z,6.08
2018-12-08T08:43:47.198Z,6.09
2018-12-08T08:44:47.188Z,6.04
2018-12-08T08:45:47.203Z,6.12
2018-12-08T08:46:47.165Z,6.09
2018-12-08T08:47:47.159Z,6.18
2018-12-08T08:48:47.146Z,6.21
2018-12-08T08:49:47.139Z,6.19
2018-12-08T08:50:47.149Z,6.27
2018-12-08T08:51:47.114Z,6.27
2018-12-08T08:52:47.103Z,6.28
2018-12-08T08:53:47.092Z,6.38
2018-12-08T08:54:47.080Z,6.30
2018-12-08T08:55:47.095Z,6.44
2018-12-08T08:56:47.059Z,6.46
2018-12-08T08:57:47.055Z,6.54
2018-12-08T08:58:47.037Z,6.51
2018-12-08T08:59:47.031Z,6.52
2018-12-08T09:00:47.044Z,6.48
2018-12-08T09:01:47.007Z,6.52
2018-12-08T09:02:46.994Z,6.51
2018-12-08T09:03:46.986Z,6.61
2018-12-08T09:04:46.975Z,6.46
2018-12-08T09:05:46.999Z,6.46
2018-12-08T09:06:46.952Z,6.46
2018-12-08T09:07:46.943Z,6.49
2018-12-08T09:08:46.997Z,6.52
2018-12-08T09:09:46.919Z,6.52
2018-12-08T09:10:46.910Z,6.59
2018-12-08T09:11:46.923Z,6.51
2018-12-08T09:12:46.888Z,6.55
2018-12-08T09:13:46.879Z,6.51
2018-12-08T09:14:46.868Z,6.55
2018-12-08T09:15:46.856Z,6.55
2018-12-08T09:16:46.873Z,6.59
2018-12-08T09:17:46.837Z,6.64
2018-12-08T09:18:46.827Z,6.69
2018-12-08T09:19:46.813Z,6.64
2018-12-08T09:20:46.802Z,6.64
2018-12-08T09:21:46.866Z,6.71
2018-12-08T09:22:46.784Z,6.64
2018-12-08T09:23:46.773Z,6.70
2018-12-08T09:24:46.758Z,6.71
2018-12-08T09:25:46.749Z,6.80
2018-12-08T09:26:46.738Z,6.77
2018-12-08T09:27:46.751Z,6.77
2018-12-08T09:28:46.715Z,6.74
2018-12-08T09:29:46.705Z,6.84
2018-12-08T09:30:46.696Z,6.77
2018-12-08T09:31:46.686Z,6.80
2018-12-08T09:32:46.698Z,6.85
2018-12-08T09:33:46.664Z,6.89
2018-12-08T09:34:46.648Z,6.92
2018-12-08T09:35:46.638Z,6.92
2018-12-08T09:36:46.627Z,6.98
2018-12-08T09:37:46.657Z,6.99
2018-12-08T09:38:46.605Z,6.92
2018-12-08T09:39:46.594Z,6.92
2018-12-08T09:40:46.582Z,6.91
2018-12-08T09:41:46.571Z,6.95
2018-12-08T09:42:46.560Z,6.88
2018-12-08T09:43:46.577Z,6.95
2018-12-08T09:44:46.536Z,6.94
2018-12-08T09:45:46.528Z,6.99
2018-12-08T09:46:46.514Z,6.99
2018-12-08T09:47:46.505Z,7.06
2018-12-08T09:48:46.518Z,6.92
2018-12-08T09:49:46.481Z,6.94
2018-12-08T09:50:46.477Z,7.02
2018-12-08T09:51:46.464Z,7.02
2018-12-08T09:52:46.449Z,7.07
2018-12-08T09:53:46.465Z,7.13
2018-12-08T09:54:47.530Z,7.12
2018-12-08T09:55:46.417Z,7.20
2018-12-08T09:56:46.406Z,7.15
2018-12-08T09:57:46.394Z,7.16
2018-12-08T09:58:46.409Z,7.24
2018-12-08T09:59:46.374Z,7.28
2018-12-08T10:00:46.361Z,7.25
2018-12-08T10:01:46.349Z,7.25
2018-12-08T10:02:46.340Z,7.21
2018-12-08T10:03:46.367Z,7.25
2018-12-08T10:04:46.316Z,7.27
2018-12-08T10:05:46.304Z,7.24
2018-12-08T10:06:46.294Z,7.27
2018-12-08T10:07:46.283Z,7.28
2018-12-08T10:08:46.271Z,7.25
2018-12-08T10:09:46.286Z,7.27
2018-12-08T10:10:46.250Z,7.28
2018-12-08T10:11:46.241Z,7.39
2018-12-08T10:12:46.228Z,7.31
2018-12-08T10:13:46.221Z,7.31
2018-12-08T10:14:46.245Z,7.37
2018-12-08T10:15:46.195Z,7.28
2018-12-08T10:16:46.186Z,7.31
2018-12-08T10:17:46.174Z,7.25
2018-12-08T10:18:46.161Z,7.21
2018-12-08T10:19:46.150Z,7.28
2018-12-08T10:20:46.163Z,7.27
2018-12-08T10:21:46.128Z,7.32
2018-12-08T10:22:46.117Z,7.28
2018-12-08T10:23:46.107Z,7.31
2018-12-08T10:24:46.097Z,7.35
2018-12-08T10:25:46.113Z,7.39
2018-12-08T10:26:46.072Z,7.30
2018-12-08T10:27:46.063Z,7.37
2018-12-08T10:28:46.051Z,7.39
2018-12-08T10:29:46.039Z,7.40
2018-12-08T10:30:46.054Z,7.49
2018-12-08T10:31:46.018Z,7.46
2018-12-08T10:32:46.012Z,7.45
2018-12-08T10:33:45.995Z,7.45
2018-12-08T10:34:45.984Z,7.42
2018-12-08T10:35:45.997Z,7.48
2018-12-08T10:36:45.963Z,7.46
2018-12-08T10:37:45.959Z,7.46
2018-12-08T10:38:45.943Z,7.49
2018-12-08T10:39:45.950Z,7.43
2018-12-08T10:40:45.944Z,7.49
2018-12-08T10:41:45.914Z,7.52
2018-12-08T10:42:45.896Z,7.52
2018-12-08T10:43:45.884Z,7.43
2018-12-08T10:44:45.875Z,7.57
2018-12-08T10:45:45.887Z,7.48
2018-12-08T10:46:45.854Z,7.60
2018-12-08T10:47:45.842Z,7.46
2018-12-08T10:48:45.831Z,7.45
2018-12-08T10:49:45.832Z,7.48
2018-12-08T10:50:45.833Z,7.49
2018-12-08T10:51:45.800Z,7.55
2018-12-08T10:52:45.788Z,7.63
2018-12-08T10:53:45.778Z,7.64
2018-12-08T10:54:45.768Z,7.58
2018-12-08T10:55:45.783Z,7.60
2018-12-08T10:56:45.744Z,7.61
2018-12-08T10:57:45.734Z,7.60
2018-12-08T10:58:45.732Z,7.63
2018-12-08T10:59:45.716Z,7.58
2018-12-08T11:00:45.724Z,7.67
2018-12-08T11:01:45.689Z,7.67
2018-12-08T11:02:45.681Z,7.61
2018-12-08T11:03:45.668Z,7.61
2018-12-08T11:04:45.655Z,7.64
2018-12-08T11:05:45.672Z,7.64
2018-12-08T11:06:45.635Z,7.67
2018-12-08T11:07:45.624Z,7.60
2018-12-08T11:08:45.613Z,7.61
2018-12-08T11:09:45.602Z,7.60
2018-12-08T11:10:45.615Z,7.58
2018-12-08T11:11:45.582Z,7.74
2018-12-08T11:12:45.575Z,7.74
2018-12-08T11:13:45.561Z,7.63
2018-12-08T11:14:45.556Z,7.72
2018-12-08T11:15:45.578Z,7.75
2018-12-08T11:16:45.528Z,7.71
2018-12-08T11:17:45.519Z,7.69
2018-12-08T11:18:45.506Z,7.85
2018-12-08T11:19:45.506Z,7.75
2018-12-08T11:20:45.487Z,7.72
2018-12-08T11:21:45.502Z,7.79
2018-12-08T11:22:45.464Z,7.83
2018-12-08T11:23:45.468Z,7.83
2018-12-08T11:24:45.443Z,7.79
2018-12-08T11:25:45.444Z,7.85
2018-12-08T11:26:45.536Z,7.83
2018-12-08T11:27:45.426Z,7.87
2018-12-08T11:28:45.400Z,7.87
2018-12-08T11:29:45.391Z,7.97
2018-12-08T11:30:45.380Z,7.98
2018-12-08T11:31:45.391Z,7.90
2018-12-08T11:32:45.377Z,7.97
2018-12-08T11:33:45.348Z,8.01
2018-12-08T11:34:45.347Z,8.02
2018-12-08T11:35:45.327Z,8.02
2018-12-08T11:36:49.492Z,8.08
2018-12-08T11:37:45.322Z,8.04
2018-12-08T11:38:45.295Z,8.05
2018-12-08T11:39:45.282Z,8.11
2018-12-08T11:40:45.272Z,8.04
2018-12-08T11:41:52.330Z,8.15
2018-12-08T11:42:45.284Z,8.04
2018-12-08T11:43:45.269Z,8.12
2018-12-08T11:44:45.249Z,8.19
2018-12-08T11:45:45.231Z,8.20
2018-12-08T11:46:45.251Z,8.19
2018-12-08T11:47:45.209Z,8.08
2018-12-08T11:48:45.188Z,8.15
2018-12-08T11:49:45.181Z,8.15
2018-12-08T11:50:45.173Z,8.16
2018-12-08T11:51:45.177Z,8.15
2018-12-08T11:52:45.144Z,8.18
2018-12-08T11:53:45.136Z,8.22
2018-12-08T11:54:45.120Z,8.28
2018-12-08T11:55:45.110Z,8.16
2018-12-08T11:56:45.141Z,8.29
2018-12-08T11:57:45.089Z,8.30
2018-12-08T11:58:45.078Z,8.29
2018-12-08T11:59:45.066Z,8.26
2018-12-08T12:00:45.063Z,8.37
2018-12-08T12:01:45.045Z,8.36
2018-12-08T12:02:45.069Z,8.30
2018-12-08T12:03:45.021Z,8.36
2018-12-08T12:04:45.012Z,8.40
2018-12-08T12:05:45.001Z,8.37
2018-12-08T12:06:44.995Z,8.29
2018-12-08T12:07:45.022Z,8.36
2018-12-08T12:08:44.970Z,8.30
2018-12-08T12:09:44.959Z,8.41
2018-12-08T12:10:44.947Z,8.37
2018-12-08T12:11:44.934Z,8.40
2018-12-08T12:12:44.921Z,8.45
2018-12-08T12:13:44.944Z,8.43
2018-12-08T12:14:44.904Z,8.41
2018-12-08T12:15:44.897Z,8.40
2018-12-08T12:16:44.880Z,8.50
2018-12-08T12:17:44.870Z,8.45
2018-12-08T12:18:44.896Z,8.50
2018-12-08T12:19:44.848Z,8.47
2018-12-08T12:20:44.839Z,8.53
2018-12-08T12:21:44.832Z,8.50
2018-12-08T12:22:44.820Z,8.55
2018-12-08T12:23:44.830Z,8.55
2018-12-08T12:24:44.793Z,8.62
2018-12-08T12:25:44.784Z,8.58
2018-12-08T12:26:44.770Z,8.59
2018-12-08T12:27:44.759Z,8.62
2018-12-08T12:28:44.771Z,8.66
2018-12-08T12:29:44.737Z,8.62
2018-12-08T12:30:44.730Z,8.68
2018-12-08T12:31:44.720Z,8.66
2018-12-08T12:32:44.708Z,8.62
2018-12-08T12:33:44.722Z,8.59
2018-12-08T12:34:44.681Z,8.68
2018-12-08T12:35:44.669Z,8.62
2018-12-08T12:36:44.657Z,8.59
2018-12-08T12:37:44.647Z,8.63
2018-12-08T12:38:44.663Z,8.62
2018-12-08T12:39:44.627Z,8.65
2018-12-08T12:40:44.621Z,8.65
2018-12-08T12:41:44.602Z,8.56
2018-12-08T12:42:44.594Z,8.58
2018-12-08T12:43:44.607Z,8.62
2018-12-08T12:44:44.569Z,8.59
2018-12-08T12:45:44.560Z,8.55
2018-12-08T12:46:44.546Z,8.62
2018-12-08T12:47:44.542Z,8.52
2018-12-08T12:48:44.551Z,8.56
2018-12-08T12:49:44.522Z,8.53
2018-12-08T12:50:44.500Z,8.38
2018-12-08T12:51:44.494Z,8.55
2018-12-08T12:52:44.481Z,8.43
2018-12-08T12:53:44.496Z,8.56
2018-12-08T12:54:44.459Z,8.59
2018-12-08T12:55:44.456Z,8.52
2018-12-08T12:56:44.439Z,8.59
2018-12-08T12:57:44.424Z,8.58
2018-12-08T12:58:44.441Z,8.43
2018-12-08T12:59:44.404Z,8.38
2018-12-08T13:00:44.396Z,8.58
2018-12-08T13:01:44.383Z,8.55
2018-12-08T13:02:44.370Z,8.40
2018-12-08T13:03:44.385Z,8.55
2018-12-08T13:04:44.349Z,8.38
2018-12-08T13:05:44.353Z,8.43
2018-12-08T13:06:44.329Z,8.44
2018-12-08T13:07:44.313Z,8.50
2018-12-08T13:08:44.328Z,8.43
2018-12-08T13:09:44.291Z,8.55
2018-12-08T13:10:44.280Z,8.37
2018-12-08T13:11:44.272Z,8.55
2018-12-08T13:12:44.256Z,8.56
2018-12-08T13:13:44.273Z,8.56
2018-12-08T13:14:44.248Z,8.52
2018-12-08T13:15:44.223Z,8.58
2018-12-08T13:16:44.213Z,8.55
2018-12-08T13:17:44.206Z,8.55
2018-12-08T13:18:44.223Z,8.56